sensor_id;sensor_type;location;lat;lon;timestamp;P1;durP1;ratioP1;P2;durP2;ratioP2
34725;SDS011;20951;50.818;4.344;2023-03-13T00:00:33;23.95;;;6.53;;
34725;SDS011;20951;50.818;4.344;2023-03-13T00:03:00;23.77;;;6.25;;
34725;SDS011;20951;50.818;4.344;2023-03-13T00:05:28;24.10;;;5.97;;
34725;SDS011;20951;50.818;4.344;2023-03-13T00:07:54;19.85;;;6.38;;
34725;SDS011;20951;50.818;4.344;2023-03-13T00:10:20;25.40;;;6.70;;
34725;SDS011;20951;50.818;4.344;2023-03-13T00:12:46;19.48;;;6.13;;
34725;SDS011;20951;50.818;4.344;2023-03-13T00:15:12;19.10;;;6.18;;
34725;SDS011;20951;50.818;4.344;2023-03-13T00:17:38;24.70;;;5.82;;
34725;SDS011;20951;50.818;4.344;2023-03-13T00:20:04;21.92;;;6.10;;
34725;SDS011;20951;50.818;4.344;2023-03-13T00:22:31;27.05;;;6.93;;
34725;SDS011;20951;50.818;4.344;2023-03-13T00:24:57;18.05;;;6.50;;
34725;SDS011;20951;50.818;4.344;2023-03-13T00:27:23;20.02;;;6.85;;
34725;SDS011;20951;50.818;4.344;2023-03-13T00:29:49;27.10;;;7.43;;
34725;SDS011;20951;50.818;4.344;2023-03-13T00:32:15;17.45;;;7.18;;
34725;SDS011;20951;50.818;4.344;2023-03-13T00:34:40;20.92;;;7.25;;
34725;SDS011;20951;50.818;4.344;2023-03-13T00:37:06;22.90;;;7.22;;
34725;SDS011;20951;50.818;4.344;2023-03-13T00:39:32;20.05;;;7.03;;
34725;SDS011;20951;50.818;4.344;2023-03-13T00:41:58;20.08;;;7.28;;
34725;SDS011;20951;50.818;4.344;2023-03-13T00:44:28;16.20;;;6.50;;
34725;SDS011;20951;50.818;4.344;2023-03-13T00:46:54;20.75;;;7.50;;
34725;SDS011;20951;50.818;4.344;2023-03-13T00:49:20;20.27;;;7.00;;
34725;SDS011;20951;50.818;4.344;2023-03-13T00:51:46;15.52;;;6.55;;
34725;SDS011;20951;50.818;4.344;2023-03-13T00:54:12;16.35;;;6.35;;
34725;SDS011;20951;50.818;4.344;2023-03-13T00:56:37;13.48;;;6.70;;
34725;SDS011;20951;50.818;4.344;2023-03-13T00:59:03;17.17;;;7.40;;
34725;SDS011;20951;50.818;4.344;2023-03-13T01:01:31;19.80;;;8.73;;
34725;SDS011;20951;50.818;4.344;2023-03-13T01:04:10;18.20;;;9.25;;
34725;SDS011;20951;50.818;4.344;2023-03-13T01:06:37;17.27;;;9.95;;
34725;SDS011;20951;50.818;4.344;2023-03-13T01:09:07;19.13;;;10.60;;
34725;SDS011;20951;50.818;4.344;2023-03-13T01:11:36;21.50;;;11.82;;
34725;SDS011;20951;50.818;4.344;2023-03-13T01:14:05;21.05;;;11.10;;
34725;SDS011;20951;50.818;4.344;2023-03-13T01:16:33;23.95;;;12.05;;
34725;SDS011;20951;50.818;4.344;2023-03-13T01:19:02;20.02;;;12.35;;
34725;SDS011;20951;50.818;4.344;2023-03-13T01:21:30;25.15;;;13.93;;
34725;SDS011;20951;50.818;4.344;2023-03-13T01:23:56;22.27;;;13.70;;
34725;SDS011;20951;50.818;4.344;2023-03-13T01:26:22;24.75;;;13.90;;
34725;SDS011;20951;50.818;4.344;2023-03-13T01:28:49;24.75;;;14.02;;
34725;SDS011;20951;50.818;4.344;2023-03-13T01:31:17;22.13;;;13.40;;
34725;SDS011;20951;50.818;4.344;2023-03-13T01:33:47;25.40;;;13.45;;
34725;SDS011;20951;50.818;4.344;2023-03-13T01:36:14;22.65;;;13.95;;
34725;SDS011;20951;50.818;4.344;2023-03-13T01:38:41;20.45;;;13.85;;
34725;SDS011;20951;50.818;4.344;2023-03-13T01:41:07;25.40;;;14.45;;
34725;SDS011;20951;50.818;4.344;2023-03-13T01:43:36;21.35;;;14.63;;
34725;SDS011;20951;50.818;4.344;2023-03-13T01:46:04;24.85;;;15.30;;
34725;SDS011;20951;50.818;4.344;2023-03-13T01:51:33;22.55;;;14.77;;
34725;SDS011;20951;50.818;4.344;2023-03-13T01:56:53;22.38;;;14.20;;
34725;SDS011;20951;50.818;4.344;2023-03-13T01:59:35;21.23;;;14.05;;
34725;SDS011;20951;50.818;4.344;2023-03-13T02:02:08;19.33;;;13.65;;
34725;SDS011;20951;50.818;4.344;2023-03-13T02:04:35;17.67;;;13.00;;
34725;SDS011;20951;50.818;4.344;2023-03-13T02:07:05;21.33;;;13.32;;
34725;SDS011;20951;50.818;4.344;2023-03-13T02:09:36;19.05;;;12.00;;
34725;SDS011;20951;50.818;4.344;2023-03-13T02:12:07;20.67;;;12.07;;
34725;SDS011;20951;50.818;4.344;2023-03-13T02:14:36;16.85;;;11.52;;
34725;SDS011;20951;50.818;4.344;2023-03-13T02:17:05;15.57;;;10.73;;
34725;SDS011;20951;50.818;4.344;2023-03-13T02:22:10;14.10;;;9.45;;
34725;SDS011;20951;50.818;4.344;2023-03-13T02:28:34;13.30;;;9.02;;
34725;SDS011;20951;50.818;4.344;2023-03-13T02:30:35;15.70;;;9.35;;
34725;SDS011;20951;50.818;4.344;2023-03-13T02:33:02;14.27;;;8.63;;
34725;SDS011;20951;50.818;4.344;2023-03-13T02:35:29;11.60;;;8.30;;
34725;SDS011;20951;50.818;4.344;2023-03-13T02:37:58;12.52;;;7.88;;
34725;SDS011;20951;50.818;4.344;2023-03-13T02:40:29;12.50;;;7.95;;
34725;SDS011;20951;50.818;4.344;2023-03-13T02:42:59;12.13;;;7.63;;
34725;SDS011;20951;50.818;4.344;2023-03-13T02:45:28;9.57;;;7.40;;
34725;SDS011;20951;50.818;4.344;2023-03-13T02:47:57;10.38;;;7.32;;
34725;SDS011;20951;50.818;4.344;2023-03-13T02:50:23;11.35;;;6.93;;
34725;SDS011;20951;50.818;4.344;2023-03-13T02:52:53;10.75;;;7.25;;
34725;SDS011;20951;50.818;4.344;2023-03-13T02:55:27;12.05;;;6.80;;
34725;SDS011;20951;50.818;4.344;2023-03-13T02:57:56;13.57;;;6.30;;
34725;SDS011;20951;50.818;4.344;2023-03-13T03:00:22;8.50;;;6.32;;
34725;SDS011;20951;50.818;4.344;2023-03-13T03:02:53;10.48;;;6.57;;
34725;SDS011;20951;50.818;4.344;2023-03-13T03:05:20;11.43;;;5.95;;
34725;SDS011;20951;50.818;4.344;2023-03-13T03:07:46;10.85;;;5.25;;
34725;SDS011;20951;50.818;4.344;2023-03-13T03:10:13;13.82;;;6.45;;
34725;SDS011;20951;50.818;4.344;2023-03-13T03:12:40;11.15;;;6.00;;
34725;SDS011;20951;50.818;4.344;2023-03-13T03:15:06;10.77;;;5.60;;
34725;SDS011;20951;50.818;4.344;2023-03-13T03:17:33;9.38;;;5.47;;
34725;SDS011;20951;50.818;4.344;2023-03-13T03:19:59;11.15;;;5.60;;
34725;SDS011;20951;50.818;4.344;2023-03-13T03:22:25;7.40;;;5.28;;
34725;SDS011;20951;50.818;4.344;2023-03-13T03:24:50;9.30;;;5.07;;
34725;SDS011;20951;50.818;4.344;2023-03-13T03:27:16;7.10;;;4.70;;
34725;SDS011;20951;50.818;4.344;2023-03-13T03:29:42;8.52;;;4.75;;
34725;SDS011;20951;50.818;4.344;2023-03-13T03:32:08;6.57;;;4.55;;
34725;SDS011;20951;50.818;4.344;2023-03-13T03:34:34;9.60;;;4.50;;
34725;SDS011;20951;50.818;4.344;2023-03-13T03:37:00;7.90;;;4.13;;
34725;SDS011;20951;50.818;4.344;2023-03-13T03:39:26;8.45;;;4.43;;
34725;SDS011;20951;50.818;4.344;2023-03-13T03:41:52;7.47;;;4.10;;
34725;SDS011;20951;50.818;4.344;2023-03-13T03:44:18;7.75;;;4.07;;
34725;SDS011;20951;50.818;4.344;2023-03-13T03:46:44;7.70;;;4.30;;
34725;SDS011;20951;50.818;4.344;2023-03-13T03:49:10;10.80;;;4.70;;
34725;SDS011;20951;50.818;4.344;2023-03-13T03:51:36;7.25;;;4.10;;
34725;SDS011;20951;50.818;4.344;2023-03-13T03:54:02;8.45;;;4.03;;
34725;SDS011;20951;50.818;4.344;2023-03-13T03:56:28;5.82;;;3.65;;
34725;SDS011;20951;50.818;4.344;2023-03-13T03:58:54;7.78;;;3.53;;
34725;SDS011;20951;50.818;4.344;2023-03-13T04:01:19;6.95;;;3.90;;
34725;SDS011;20951;50.818;4.344;2023-03-13T04:03:45;8.98;;;4.05;;
34725;SDS011;20951;50.818;4.344;2023-03-13T04:06:12;7.70;;;3.92;;
34725;SDS011;20951;50.818;4.344;2023-03-13T04:08:38;7.47;;;4.03;;
34725;SDS011;20951;50.818;4.344;2023-03-13T04:11:04;7.20;;;3.80;;
34725;SDS011;20951;50.818;4.344;2023-03-13T04:13:30;7.20;;;3.75;;
34725;SDS011;20951;50.818;4.344;2023-03-13T04:15:56;10.65;;;3.80;;
34725;SDS011;20951;50.818;4.344;2023-03-13T04:18:22;7.07;;;3.80;;
34725;SDS011;20951;50.818;4.344;2023-03-13T04:20:48;7.05;;;3.45;;
34725;SDS011;20951;50.818;4.344;2023-03-13T04:23:14;9.00;;;3.42;;
34725;SDS011;20951;50.818;4.344;2023-03-13T04:25:40;9.88;;;3.88;;
34725;SDS011;20951;50.818;4.344;2023-03-13T04:28:07;7.15;;;3.70;;
34725;SDS011;20951;50.818;4.344;2023-03-13T04:30:33;7.22;;;3.15;;
34725;SDS011;20951;50.818;4.344;2023-03-13T04:32:58;7.45;;;3.60;;
34725;SDS011;20951;50.818;4.344;2023-03-13T04:35:24;7.22;;;3.50;;
34725;SDS011;20951;50.818;4.344;2023-03-13T04:37:50;8.32;;;3.15;;
34725;SDS011;20951;50.818;4.344;2023-03-13T04:40:16;10.27;;;3.45;;
34725;SDS011;20951;50.818;4.344;2023-03-13T04:42:42;8.93;;;3.13;;
34725;SDS011;20951;50.818;4.344;2023-03-13T04:45:12;9.70;;;3.17;;
34725;SDS011;20951;50.818;4.344;2023-03-13T04:47:38;9.13;;;3.50;;
34725;SDS011;20951;50.818;4.344;2023-03-13T04:50:04;10.20;;;3.33;;
34725;SDS011;20951;50.818;4.344;2023-03-13T04:52:30;8.75;;;3.67;;
34725;SDS011;20951;50.818;4.344;2023-03-13T04:54:56;8.52;;;3.17;;
34725;SDS011;20951;50.818;4.344;2023-03-13T04:57:22;8.40;;;3.15;;
34725;SDS011;20951;50.818;4.344;2023-03-13T04:59:48;11.43;;;3.72;;
34725;SDS011;20951;50.818;4.344;2023-03-13T05:02:14;10.40;;;3.38;;
34725;SDS011;20951;50.818;4.344;2023-03-13T05:04:39;7.65;;;3.08;;
34725;SDS011;20951;50.818;4.344;2023-03-13T05:07:05;8.13;;;3.47;;
34725;SDS011;20951;50.818;4.344;2023-03-13T05:09:31;8.38;;;3.35;;
34725;SDS011;20951;50.818;4.344;2023-03-13T05:11:57;12.68;;;3.85;;
34725;SDS011;20951;50.818;4.344;2023-03-13T05:14:23;9.25;;;3.40;;
34725;SDS011;20951;50.818;4.344;2023-03-13T05:16:49;10.93;;;3.50;;
34725;SDS011;20951;50.818;4.344;2023-03-13T05:19:15;9.23;;;3.63;;
34725;SDS011;20951;50.818;4.344;2023-03-13T05:21:42;11.57;;;4.18;;
34725;SDS011;20951;50.818;4.344;2023-03-13T05:24:09;8.48;;;3.75;;
34725;SDS011;20951;50.818;4.344;2023-03-13T05:26:43;12.60;;;3.50;;
34725;SDS011;20951;50.818;4.344;2023-03-13T05:29:13;9.65;;;3.70;;
34725;SDS011;20951;50.818;4.344;2023-03-13T05:31:42;7.65;;;3.47;;
34725;SDS011;20951;50.818;4.344;2023-03-13T05:34:08;10.93;;;3.72;;
34725;SDS011;20951;50.818;4.344;2023-03-13T05:36:41;10.07;;;3.53;;
34725;SDS011;20951;50.818;4.344;2023-03-13T05:39:14;12.50;;;3.85;;
34725;SDS011;20951;50.818;4.344;2023-03-13T05:41:52;9.45;;;3.33;;
34725;SDS011;20951;50.818;4.344;2023-03-13T05:44:28;12.60;;;3.42;;
34725;SDS011;20951;50.818;4.344;2023-03-13T05:47:01;11.15;;;3.92;;
34725;SDS011;20951;50.818;4.344;2023-03-13T05:49:35;10.68;;;3.53;;
34725;SDS011;20951;50.818;4.344;2023-03-13T05:52:03;11.25;;;3.72;;
34725;SDS011;20951;50.818;4.344;2023-03-13T05:54:29;10.75;;;3.42;;
34725;SDS011;20951;50.818;4.344;2023-03-13T05:56:55;9.32;;;3.47;;
34725;SDS011;20951;50.818;4.344;2023-03-13T05:59:21;10.93;;;3.42;;
34725;SDS011;20951;50.818;4.344;2023-03-13T06:01:47;14.55;;;3.72;;
34725;SDS011;20951;50.818;4.344;2023-03-13T06:04:13;12.52;;;3.35;;
34725;SDS011;20951;50.818;4.344;2023-03-13T06:06:39;11.95;;;3.53;;
34725;SDS011;20951;50.818;4.344;2023-03-13T06:09:05;7.43;;;3.15;;
34725;SDS011;20951;50.818;4.344;2023-03-13T06:11:31;13.93;;;3.20;;
34725;SDS011;20951;50.818;4.344;2023-03-13T06:13:57;12.45;;;3.55;;
34725;SDS011;20951;50.818;4.344;2023-03-13T06:16:23;12.00;;;3.92;;
34725;SDS011;20951;50.818;4.344;2023-03-13T06:18:49;11.73;;;3.70;;
34725;SDS011;20951;50.818;4.344;2023-03-13T06:21:15;14.50;;;3.80;;
34725;SDS011;20951;50.818;4.344;2023-03-13T06:23:41;13.98;;;3.58;;
34725;SDS011;20951;50.818;4.344;2023-03-13T06:26:06;15.73;;;3.67;;
34725;SDS011;20951;50.818;4.344;2023-03-13T06:28:32;10.48;;;3.40;;
34725;SDS011;20951;50.818;4.344;2023-03-13T06:31:02;10.85;;;3.83;;
34725;SDS011;20951;50.818;4.344;2023-03-13T06:33:28;12.48;;;3.40;;
34725;SDS011;20951;50.818;4.344;2023-03-13T06:35:55;14.38;;;3.67;;
34725;SDS011;20951;50.818;4.344;2023-03-13T06:38:22;15.10;;;3.70;;
34725;SDS011;20951;50.818;4.344;2023-03-13T06:40:49;11.18;;;3.63;;
34725;SDS011;20951;50.818;4.344;2023-03-13T06:43:15;10.07;;;3.53;;
34725;SDS011;20951;50.818;4.344;2023-03-13T06:45:41;19.00;;;3.80;;
34725;SDS011;20951;50.818;4.344;2023-03-13T06:48:06;16.05;;;4.43;;
34725;SDS011;20951;50.818;4.344;2023-03-13T06:50:36;11.88;;;3.65;;
34725;SDS011;20951;50.818;4.344;2023-03-13T06:53:02;10.98;;;3.80;;
34725;SDS011;20951;50.818;4.344;2023-03-13T06:55:29;15.73;;;3.60;;
34725;SDS011;20951;50.818;4.344;2023-03-13T06:57:55;11.68;;;3.50;;
34725;SDS011;20951;50.818;4.344;2023-03-13T07:00:21;13.70;;;3.53;;
34725;SDS011;20951;50.818;4.344;2023-03-13T07:02:47;11.80;;;3.50;;
34725;SDS011;20951;50.818;4.344;2023-03-13T07:05:14;12.60;;;3.47;;
34725;SDS011;20951;50.818;4.344;2023-03-13T07:07:40;13.40;;;3.53;;
34725;SDS011;20951;50.818;4.344;2023-03-13T07:10:07;10.02;;;3.35;;
34725;SDS011;20951;50.818;4.344;2023-03-13T07:12:34;10.57;;;3.63;;
34725;SDS011;20951;50.818;4.344;2023-03-13T07:15:01;14.18;;;3.63;;
34725;SDS011;20951;50.818;4.344;2023-03-13T07:17:27;11.77;;;3.50;;
34725;SDS011;20951;50.818;4.344;2023-03-13T07:19:53;14.27;;;3.58;;
34725;SDS011;20951;50.818;4.344;2023-03-13T07:22:19;9.88;;;3.08;;
34725;SDS011;20951;50.818;4.344;2023-03-13T07:24:45;17.90;;;3.85;;
34725;SDS011;20951;50.818;4.344;2023-03-13T07:27:11;16.63;;;3.90;;
34725;SDS011;20951;50.818;4.344;2023-03-13T07:29:37;11.90;;;3.13;;
34725;SDS011;20951;50.818;4.344;2023-03-13T07:32:03;8.95;;;3.50;;
34725;SDS011;20951;50.818;4.344;2023-03-13T07:34:30;10.05;;;2.90;;
34725;SDS011;20951;50.818;4.344;2023-03-13T07:36:56;11.75;;;4.13;;
34725;SDS011;20951;50.818;4.344;2023-03-13T07:39:22;11.15;;;3.90;;
34725;SDS011;20951;50.818;4.344;2023-03-13T07:41:50;12.77;;;3.53;;
34725;SDS011;20951;50.818;4.344;2023-03-13T07:44:16;11.65;;;3.50;;
34725;SDS011;20951;50.818;4.344;2023-03-13T07:46:42;11.80;;;3.83;;
34725;SDS011;20951;50.818;4.344;2023-03-13T07:49:08;14.77;;;4.05;;
34725;SDS011;20951;50.818;4.344;2023-03-13T07:51:34;13.35;;;3.92;;
34725;SDS011;20951;50.818;4.344;2023-03-13T07:54:00;11.23;;;4.35;;
34725;SDS011;20951;50.818;4.344;2023-03-13T07:56:26;14.90;;;3.75;;
34725;SDS011;20951;50.818;4.344;2023-03-13T07:58:51;11.55;;;4.05;;
34725;SDS011;20951;50.818;4.344;2023-03-13T08:01:18;11.13;;;3.83;;
34725;SDS011;20951;50.818;4.344;2023-03-13T08:03:49;10.48;;;3.80;;
34725;SDS011;20951;50.818;4.344;2023-03-13T08:06:16;9.15;;;3.95;;
34725;SDS011;20951;50.818;4.344;2023-03-13T08:08:43;11.82;;;4.43;;
34725;SDS011;20951;50.818;4.344;2023-03-13T08:11:14;10.80;;;3.92;;
34725;SDS011;20951;50.818;4.344;2023-03-13T08:13:45;9.10;;;3.88;;
34725;SDS011;20951;50.818;4.344;2023-03-13T08:16:12;10.35;;;4.22;;
34725;SDS011;20951;50.818;4.344;2023-03-13T08:18:44;7.40;;;3.33;;
34725;SDS011;20951;50.818;4.344;2023-03-13T08:21:12;12.18;;;3.97;;
34725;SDS011;20951;50.818;4.344;2023-03-13T08:23:40;9.10;;;3.65;;
34725;SDS011;20951;50.818;4.344;2023-03-13T08:26:07;13.30;;;3.70;;
34725;SDS011;20951;50.818;4.344;2023-03-13T08:28:37;9.80;;;3.55;;
34725;SDS011;20951;50.818;4.344;2023-03-13T08:33:57;10.10;;;3.20;;
34725;SDS011;20951;50.818;4.344;2023-03-13T08:38:50;10.85;;;3.72;;
34725;SDS011;20951;50.818;4.344;2023-03-13T08:41:18;8.32;;;3.30;;
34725;SDS011;20951;50.818;4.344;2023-03-13T08:43:46;7.65;;;2.75;;
34725;SDS011;20951;50.818;4.344;2023-03-13T08:46:13;9.95;;;3.33;;
34725;SDS011;20951;50.818;4.344;2023-03-13T08:48:40;10.07;;;3.33;;
34725;SDS011;20951;50.818;4.344;2023-03-13T08:53:32;8.35;;;2.60;;
34725;SDS011;20951;50.818;4.344;2023-03-13T08:55:59;8.18;;;2.60;;
34725;SDS011;20951;50.818;4.344;2023-03-13T08:58:25;9.07;;;2.78;;
34725;SDS011;20951;50.818;4.344;2023-03-13T09:00:59;10.25;;;2.95;;
34725;SDS011;20951;50.818;4.344;2023-03-13T09:03:29;10.07;;;2.72;;
34725;SDS011;20951;50.818;4.344;2023-03-13T09:05:57;6.90;;;2.63;;
34725;SDS011;20951;50.818;4.344;2023-03-13T09:08:23;6.32;;;2.40;;
34725;SDS011;20951;50.818;4.344;2023-03-13T09:10:59;7.88;;;3.65;;
34725;SDS011;20951;50.818;4.344;2023-03-13T09:13:28;7.78;;;3.00;;
34725;SDS011;20951;50.818;4.344;2023-03-13T09:15:58;6.78;;;2.38;;
34725;SDS011;20951;50.818;4.344;2023-03-13T09:18:26;7.15;;;2.28;;
34725;SDS011;20951;50.818;4.344;2023-03-13T09:20:53;5.93;;;2.55;;
34725;SDS011;20951;50.818;4.344;2023-03-13T09:23:19;11.15;;;2.58;;
34725;SDS011;20951;50.818;4.344;2023-03-13T09:25:47;6.40;;;2.25;;
34725;SDS011;20951;50.818;4.344;2023-03-13T09:28:13;7.25;;;2.38;;
34725;SDS011;20951;50.818;4.344;2023-03-13T09:30:39;4.93;;;1.90;;
34725;SDS011;20951;50.818;4.344;2023-03-13T09:33:05;5.50;;;2.20;;
34725;SDS011;20951;50.818;4.344;2023-03-13T09:35:31;6.18;;;2.10;;
34725;SDS011;20951;50.818;4.344;2023-03-13T09:37:57;8.73;;;2.53;;
34725;SDS011;20951;50.818;4.344;2023-03-13T09:40:23;6.20;;;1.90;;
34725;SDS011;20951;50.818;4.344;2023-03-13T09:42:52;8.23;;;2.30;;
34725;SDS011;20951;50.818;4.344;2023-03-13T09:45:30;4.78;;;2.00;;
34725;SDS011;20951;50.818;4.344;2023-03-13T09:48:06;7.95;;;2.30;;
34725;SDS011;20951;50.818;4.344;2023-03-13T09:50:52;5.38;;;1.65;;
34725;SDS011;20951;50.818;4.344;2023-03-13T09:53:29;5.40;;;1.85;;
34725;SDS011;20951;50.818;4.344;2023-03-13T09:56:03;7.22;;;2.00;;
34725;SDS011;20951;50.818;4.344;2023-03-13T09:58:33;6.78;;;1.90;;
34725;SDS011;20951;50.818;4.344;2023-03-13T10:01:00;6.60;;;1.80;;
34725;SDS011;20951;50.818;4.344;2023-03-13T10:03:29;4.90;;;1.98;;
34725;SDS011;20951;50.818;4.344;2023-03-13T10:06:18;5.65;;;1.80;;
34725;SDS011;20951;50.818;4.344;2023-03-13T10:08:45;5.22;;;1.80;;
34725;SDS011;20951;50.818;4.344;2023-03-13T10:11:27;5.05;;;1.70;;
34725;SDS011;20951;50.818;4.344;2023-03-13T10:16:44;5.78;;;1.60;;
34725;SDS011;20951;50.818;4.344;2023-03-13T10:19:17;7.35;;;1.85;;
34725;SDS011;20951;50.818;4.344;2023-03-13T10:21:49;3.78;;;1.55;;
34725;SDS011;20951;50.818;4.344;2023-03-13T10:27:07;6.30;;;1.85;;
34725;SDS011;20951;50.818;4.344;2023-03-13T10:29:34;4.65;;;1.77;;
34725;SDS011;20951;50.818;4.344;2023-03-13T10:32:03;6.03;;;1.80;;
34725;SDS011;20951;50.818;4.344;2023-03-13T10:37:29;4.85;;;1.67;;
34725;SDS011;20951;50.818;4.344;2023-03-13T10:40:23;7.53;;;1.73;;
34725;SDS011;20951;50.818;4.344;2023-03-13T10:42:51;6.55;;;2.00;;
34725;SDS011;20951;50.818;4.344;2023-03-13T10:45:19;6.32;;;1.75;;
34725;SDS011;20951;50.818;4.344;2023-03-13T10:47:53;4.13;;;1.88;;
34725;SDS011;20951;50.818;4.344;2023-03-13T10:50:21;7.32;;;1.80;;
34725;SDS011;20951;50.818;4.344;2023-03-13T10:52:48;4.20;;;1.63;;
34725;SDS011;20951;50.818;4.344;2023-03-13T10:55:16;7.97;;;1.98;;
34725;SDS011;20951;50.818;4.344;2023-03-13T10:58:17;6.65;;;1.60;;
34725;SDS011;20951;50.818;4.344;2023-03-13T11:00:42;4.60;;;1.52;;
34725;SDS011;20951;50.818;4.344;2023-03-13T11:03:15;8.05;;;1.55;;
34725;SDS011;20951;50.818;4.344;2023-03-13T11:05:55;6.22;;;1.33;;
34725;SDS011;20951;50.818;4.344;2023-03-13T11:08:24;4.82;;;1.40;;
34725;SDS011;20951;50.818;4.344;2023-03-13T11:10:56;3.70;;;1.40;;
34725;SDS011;20951;50.818;4.344;2023-03-13T11:13:28;6.45;;;1.70;;
34725;SDS011;20951;50.818;4.344;2023-03-13T11:15:57;5.15;;;1.40;;
34725;SDS011;20951;50.818;4.344;2023-03-13T11:21:49;5.53;;;1.50;;
34725;SDS011;20951;50.818;4.344;2023-03-13T11:27:06;4.38;;;1.50;;
34725;SDS011;20951;50.818;4.344;2023-03-13T11:35:35;3.40;;;1.00;;
34725;SDS011;20951;50.818;4.344;2023-03-13T11:38:28;7.05;;;1.40;;
34725;SDS011;20951;50.818;4.344;2023-03-13T11:41:11;5.97;;;1.10;;
34725;SDS011;20951;50.818;4.344;2023-03-13T11:43:44;4.22;;;1.23;;
34725;SDS011;20951;50.818;4.344;2023-03-13T11:52:19;4.47;;;1.40;;
34725;SDS011;20951;50.818;4.344;2023-03-13T12:00:33;4.43;;;1.23;;
34725;SDS011;20951;50.818;4.344;2023-03-13T12:03:05;4.65;;;1.40;;
34725;SDS011;20951;50.818;4.344;2023-03-13T12:05:48;4.80;;;1.20;;
34725;SDS011;20951;50.818;4.344;2023-03-13T12:08:28;3.35;;;1.30;;
34725;SDS011;20951;50.818;4.344;2023-03-13T12:11:12;4.97;;;1.20;;
34725;SDS011;20951;50.818;4.344;2023-03-13T12:13:48;7.10;;;2.13;;
34725;SDS011;20951;50.818;4.344;2023-03-13T12:16:30;5.07;;;1.25;;
34725;SDS011;20951;50.818;4.344;2023-03-13T12:19:24;3.50;;;1.08;;
34725;SDS011;20951;50.818;4.344;2023-03-13T12:22:14;5.05;;;1.20;;
34725;SDS011;20951;50.818;4.344;2023-03-13T12:24:50;3.60;;;1.00;;
34725;SDS011;20951;50.818;4.344;2023-03-13T12:32:48;5.00;;;1.40;;
34725;SDS011;20951;50.818;4.344;2023-03-13T12:35:38;5.35;;;1.55;;
34725;SDS011;20951;50.818;4.344;2023-03-13T12:38:11;5.30;;;1.20;;
34725;SDS011;20951;50.818;4.344;2023-03-13T12:43:38;2.70;;;0.90;;
34725;SDS011;20951;50.818;4.344;2023-03-13T13:00:17;6.07;;;1.50;;
34725;SDS011;20951;50.818;4.344;2023-03-13T13:02:46;6.25;;;1.25;;
34725;SDS011;20951;50.818;4.344;2023-03-13T13:05:16;3.85;;;1.27;;
34725;SDS011;20951;50.818;4.344;2023-03-13T13:07:51;9.80;;;1.30;;
34725;SDS011;20951;50.818;4.344;2023-03-13T13:10:21;5.85;;;1.55;;
34725;SDS011;20951;50.818;4.344;2023-03-13T13:18:27;6.80;;;1.25;;
34725;SDS011;20951;50.818;4.344;2023-03-13T13:23:27;8.00;;;1.52;;
34725;SDS011;20951;50.818;4.344;2023-03-13T13:26:35;5.63;;;1.35;;
34725;SDS011;20951;50.818;4.344;2023-03-13T13:37:38;9.35;;;2.20;;
34725;SDS011;20951;50.818;4.344;2023-03-13T13:39:45;6.13;;;2.03;;
34725;SDS011;20951;50.818;4.344;2023-03-13T13:47:29;6.35;;;1.48;;
34725;SDS011;20951;50.818;4.344;2023-03-13T13:49:57;9.25;;;2.20;;
34725;SDS011;20951;50.818;4.344;2023-03-13T13:52:40;9.32;;;1.70;;
34725;SDS011;20951;50.818;4.344;2023-03-13T13:58:01;5.60;;;1.55;;
34725;SDS011;20951;50.818;4.344;2023-03-13T14:00:34;5.80;;;1.88;;
34725;SDS011;20951;50.818;4.344;2023-03-13T14:03:18;9.30;;;1.98;;
34725;SDS011;20951;50.818;4.344;2023-03-13T14:05:52;3.95;;;1.35;;
34725;SDS011;20951;50.818;4.344;2023-03-13T14:08:35;5.47;;;1.23;;
34725;SDS011;20951;50.818;4.344;2023-03-13T14:16:47;8.80;;;1.83;;
34725;SDS011;20951;50.818;4.344;2023-03-13T14:19:34;8.27;;;1.90;;
34725;SDS011;20951;50.818;4.344;2023-03-13T14:22:12;7.28;;;1.95;;
34725;SDS011;20951;50.818;4.344;2023-03-13T14:24:41;7.30;;;1.80;;
34725;SDS011;20951;50.818;4.344;2023-03-13T14:27:22;9.93;;;1.90;;
34725;SDS011;20951;50.818;4.344;2023-03-13T14:30:04;7.72;;;1.65;;
34725;SDS011;20951;50.818;4.344;2023-03-13T14:32:35;6.63;;;1.38;;
34725;SDS011;20951;50.818;4.344;2023-03-13T14:35:02;25.27;;;16.42;;
34725;SDS011;20951;50.818;4.344;2023-03-13T14:37:33;9.30;;;2.05;;
34725;SDS011;20951;50.818;4.344;2023-03-13T14:40:18;7.80;;;1.52;;
34725;SDS011;20951;50.818;4.344;2023-03-13T14:42:47;8.95;;;1.80;;
34725;SDS011;20951;50.818;4.344;2023-03-13T14:45:35;8.68;;;1.80;;
34725;SDS011;20951;50.818;4.344;2023-03-13T14:50:29;8.25;;;1.60;;
34725;SDS011;20951;50.818;4.344;2023-03-13T14:53:00;9.13;;;2.30;;
34725;SDS011;20951;50.818;4.344;2023-03-13T14:55:35;7.85;;;2.13;;
34725;SDS011;20951;50.818;4.344;2023-03-13T15:00:55;6.70;;;1.80;;
34725;SDS011;20951;50.818;4.344;2023-03-13T15:03:27;7.65;;;1.60;;
34725;SDS011;20951;50.818;4.344;2023-03-13T15:08:36;8.60;;;2.10;;
34725;SDS011;20951;50.818;4.344;2023-03-13T15:11:26;12.07;;;2.08;;
34725;SDS011;20951;50.818;4.344;2023-03-13T15:13:53;10.07;;;2.40;;
34725;SDS011;20951;50.818;4.344;2023-03-13T15:16:20;6.93;;;2.00;;
34725;SDS011;20951;50.818;4.344;2023-03-13T15:18:48;9.05;;;1.98;;
34725;SDS011;20951;50.818;4.344;2023-03-13T15:24:09;9.05;;;2.25;;
34725;SDS011;20951;50.818;4.344;2023-03-13T15:26:37;9.50;;;2.00;;
34725;SDS011;20951;50.818;4.344;2023-03-13T15:29:03;6.07;;;1.70;;
34725;SDS011;20951;50.818;4.344;2023-03-13T15:31:29;9.48;;;2.33;;
34725;SDS011;20951;50.818;4.344;2023-03-13T15:33:56;12.55;;;2.70;;
34725;SDS011;20951;50.818;4.344;2023-03-13T15:36:24;9.85;;;1.90;;
34725;SDS011;20951;50.818;4.344;2023-03-13T15:38:54;11.38;;;2.00;;
34725;SDS011;20951;50.818;4.344;2023-03-13T15:41:20;8.57;;;2.33;;
34725;SDS011;20951;50.818;4.344;2023-03-13T15:43:47;11.45;;;2.30;;
34725;SDS011;20951;50.818;4.344;2023-03-13T15:46:17;7.22;;;2.13;;
34725;SDS011;20951;50.818;4.344;2023-03-13T15:48:44;9.90;;;2.30;;
34725;SDS011;20951;50.818;4.344;2023-03-13T15:51:14;10.95;;;2.15;;
34725;SDS011;20951;50.818;4.344;2023-03-13T15:53:41;9.07;;;1.98;;
34725;SDS011;20951;50.818;4.344;2023-03-13T15:56:20;10.07;;;2.20;;
34725;SDS011;20951;50.818;4.344;2023-03-13T15:58:49;11.10;;;2.38;;
34725;SDS011;20951;50.818;4.344;2023-03-13T16:01:16;8.30;;;1.95;;
34725;SDS011;20951;50.818;4.344;2023-03-13T16:03:42;7.72;;;2.00;;
34725;SDS011;20951;50.818;4.344;2023-03-13T16:06:19;6.90;;;2.10;;
34725;SDS011;20951;50.818;4.344;2023-03-13T16:08:54;7.70;;;2.13;;
34725;SDS011;20951;50.818;4.344;2023-03-13T16:11:20;11.60;;;2.40;;
34725;SDS011;20951;50.818;4.344;2023-03-13T16:13:48;10.73;;;2.67;;
34725;SDS011;20951;50.818;4.344;2023-03-13T16:16:18;11.10;;;2.55;;
34725;SDS011;20951;50.818;4.344;2023-03-13T16:18:49;11.38;;;2.55;;
34725;SDS011;20951;50.818;4.344;2023-03-13T16:21:21;8.43;;;2.35;;
34725;SDS011;20951;50.818;4.344;2023-03-13T16:23:48;11.10;;;2.47;;
34725;SDS011;20951;50.818;4.344;2023-03-13T16:26:18;11.88;;;2.30;;
34725;SDS011;20951;50.818;4.344;2023-03-13T16:28:46;11.35;;;2.30;;
34725;SDS011;20951;50.818;4.344;2023-03-13T16:31:16;11.30;;;2.50;;
34725;SDS011;20951;50.818;4.344;2023-03-13T16:33:45;9.27;;;2.53;;
34725;SDS011;20951;50.818;4.344;2023-03-13T16:36:15;10.55;;;2.65;;
34725;SDS011;20951;50.818;4.344;2023-03-13T16:38:43;15.55;;;2.90;;
34725;SDS011;20951;50.818;4.344;2023-03-13T16:41:14;11.13;;;2.63;;
34725;SDS011;20951;50.818;4.344;2023-03-13T16:43:42;12.13;;;2.10;;
34725;SDS011;20951;50.818;4.344;2023-03-13T16:46:18;10.05;;;2.50;;
34725;SDS011;20951;50.818;4.344;2023-03-13T16:48:46;13.18;;;2.55;;